sensor_id;sensor_type;location;lat;lon;timestamp;P1;durP1;ratioP1;P2;durP2;ratioP2
5077;SDS011;2557;51.390;7.494;2022-08-21T00:01:14;13.10;;;9.83;;
5077;SDS011;2557;51.390;7.494;2022-08-21T00:03:42;15.40;;;10.70;;
5077;SDS011;2557;51.390;7.494;2022-08-21T00:06:08;19.17;;;11.00;;
5077;SDS011;2557;51.390;7.494;2022-08-21T00:08:34;19.20;;;11.10;;
5077;SDS011;2557;51.390;7.494;2022-08-21T00:11:00;12.67;;;9.83;;
5077;SDS011;2557;51.390;7.494;2022-08-21T00:13:26;13.70;;;10.43;;
5077;SDS011;2557;51.390;7.494;2022-08-21T00:15:52;17.70;;;9.97;;
5077;SDS011;2557;51.390;7.494;2022-08-21T00:18:19;11.83;;;9.00;;
5077;SDS011;2557;51.390;7.494;2022-08-21T00:20:46;14.33;;;10.97;;
5077;SDS011;2557;51.390;7.494;2022-08-21T00:23:12;16.13;;;11.20;;
5077;SDS011;2557;51.390;7.494;2022-08-21T00:25:39;13.40;;;9.90;;
5077;SDS011;2557;51.390;7.494;2022-08-21T00:28:05;11.20;;;9.77;;
5077;SDS011;2557;51.390;7.494;2022-08-21T00:30:31;12.23;;;11.00;;
5077;SDS011;2557;51.390;7.494;2022-08-21T00:32:58;26.80;;;11.40;;
5077;SDS011;2557;51.390;7.494;2022-08-21T00:35:27;12.60;;;9.43;;
5077;SDS011;2557;51.390;7.494;2022-08-21T00:37:53;17.20;;;10.60;;
5077;SDS011;2557;51.390;7.494;2022-08-21T00:40:21;12.77;;;10.67;;
5077;SDS011;2557;51.390;7.494;2022-08-21T00:42:47;11.43;;;10.00;;
5077;SDS011;2557;51.390;7.494;2022-08-21T00:45:14;15.13;;;10.70;;
5077;SDS011;2557;51.390;7.494;2022-08-21T00:47:40;12.97;;;11.40;;
5077;SDS011;2557;51.390;7.494;2022-08-21T00:50:07;11.50;;;10.20;;
5077;SDS011;2557;51.390;7.494;2022-08-21T00:52:34;10.70;;;9.40;;
5077;SDS011;2557;51.390;7.494;2022-08-21T00:55:01;14.80;;;9.50;;
5077;SDS011;2557;51.390;7.494;2022-08-21T00:57:29;17.00;;;11.23;;
5077;SDS011;2557;51.390;7.494;2022-08-21T00:59:56;16.47;;;11.17;;
5077;SDS011;2557;51.390;7.494;2022-08-21T01:02:24;14.30;;;10.87;;
5077;SDS011;2557;51.390;7.494;2022-08-21T01:04:50;14.67;;;11.13;;
5077;SDS011;2557;51.390;7.494;2022-08-21T01:07:16;14.57;;;10.33;;
5077;SDS011;2557;51.390;7.494;2022-08-21T01:09:43;18.23;;;11.23;;
5077;SDS011;2557;51.390;7.494;2022-08-21T01:12:09;16.60;;;10.60;;
5077;SDS011;2557;51.390;7.494;2022-08-21T01:14:36;17.20;;;10.67;;
5077;SDS011;2557;51.390;7.494;2022-08-21T01:17:03;13.60;;;10.27;;
5077;SDS011;2557;51.390;7.494;2022-08-21T01:19:29;12.90;;;10.37;;
5077;SDS011;2557;51.390;7.494;2022-08-21T01:21:56;18.23;;;11.20;;
5077;SDS011;2557;51.390;7.494;2022-08-21T01:24:22;15.73;;;11.23;;
5077;SDS011;2557;51.390;7.494;2022-08-21T01:26:48;13.10;;;11.23;;
5077;SDS011;2557;51.390;7.494;2022-08-21T01:31:41;11.97;;;9.60;;
5077;SDS011;2557;51.390;7.494;2022-08-21T01:34:07;11.23;;;10.13;;
5077;SDS011;2557;51.390;7.494;2022-08-21T01:36:33;14.97;;;10.50;;
5077;SDS011;2557;51.390;7.494;2022-08-21T01:38:59;20.43;;;10.60;;
5077;SDS011;2557;51.390;7.494;2022-08-21T01:41:25;11.43;;;9.97;;
5077;SDS011;2557;51.390;7.494;2022-08-21T01:43:51;14.63;;;10.00;;
5077;SDS011;2557;51.390;7.494;2022-08-21T01:46:17;12.37;;;9.83;;
5077;SDS011;2557;51.390;7.494;2022-08-21T01:48:44;11.70;;;10.47;;
5077;SDS011;2557;51.390;7.494;2022-08-21T01:51:10;14.67;;;10.30;;
5077;SDS011;2557;51.390;7.494;2022-08-21T01:53:36;14.87;;;10.50;;
5077;SDS011;2557;51.390;7.494;2022-08-21T01:56:04;13.40;;;10.50;;
5077;SDS011;2557;51.390;7.494;2022-08-21T01:58:30;12.90;;;10.60;;
5077;SDS011;2557;51.390;7.494;2022-08-21T02:00:56;16.27;;;9.30;;
5077;SDS011;2557;51.390;7.494;2022-08-21T02:03:22;19.63;;;9.57;;
5077;SDS011;2557;51.390;7.494;2022-08-21T02:05:48;14.73;;;9.87;;
5077;SDS011;2557;51.390;7.494;2022-08-21T02:08:14;14.43;;;10.00;;
5077;SDS011;2557;51.390;7.494;2022-08-21T02:10:40;25.13;;;11.17;;
5077;SDS011;2557;51.390;7.494;2022-08-21T02:13:07;11.30;;;10.30;;
5077;SDS011;2557;51.390;7.494;2022-08-21T02:15:33;13.27;;;10.20;;
5077;SDS011;2557;51.390;7.494;2022-08-21T02:18:01;10.87;;;9.87;;
5077;SDS011;2557;51.390;7.494;2022-08-21T02:20:32;10.90;;;8.87;;
5077;SDS011;2557;51.390;7.494;2022-08-21T02:22:59;10.40;;;9.40;;
5077;SDS011;2557;51.390;7.494;2022-08-21T02:25:25;13.73;;;9.33;;
5077;SDS011;2557;51.390;7.494;2022-08-21T02:27:52;14.07;;;8.70;;
5077;SDS011;2557;51.390;7.494;2022-08-21T02:30:22;15.23;;;9.57;;
5077;SDS011;2557;51.390;7.494;2022-08-21T02:32:49;14.47;;;9.17;;
5077;SDS011;2557;51.390;7.494;2022-08-21T02:35:15;11.23;;;8.93;;
5077;SDS011;2557;51.390;7.494;2022-08-21T02:37:45;15.63;;;10.43;;
5077;SDS011;2557;51.390;7.494;2022-08-21T02:40:12;16.53;;;11.70;;
5077;SDS011;2557;51.390;7.494;2022-08-21T02:42:38;12.70;;;10.17;;
5077;SDS011;2557;51.390;7.494;2022-08-21T02:45:05;16.20;;;10.00;;
5077;SDS011;2557;51.390;7.494;2022-08-21T02:47:31;16.13;;;9.77;;
5077;SDS011;2557;51.390;7.494;2022-08-21T02:49:57;14.50;;;10.40;;
5077;SDS011;2557;51.390;7.494;2022-08-21T02:52:23;20.80;;;10.23;;
5077;SDS011;2557;51.390;7.494;2022-08-21T02:54:49;13.47;;;9.83;;
5077;SDS011;2557;51.390;7.494;2022-08-21T02:57:15;12.40;;;9.30;;
5077;SDS011;2557;51.390;7.494;2022-08-21T02:59:41;11.90;;;9.67;;
5077;SDS011;2557;51.390;7.494;2022-08-21T03:02:07;13.70;;;10.57;;
5077;SDS011;2557;51.390;7.494;2022-08-21T03:04:33;14.70;;;9.10;;
5077;SDS011;2557;51.390;7.494;2022-08-21T03:06:59;16.70;;;9.50;;
5077;SDS011;2557;51.390;7.494;2022-08-21T03:09:25;10.63;;;9.50;;
5077;SDS011;2557;51.390;7.494;2022-08-21T03:11:51;11.80;;;9.63;;
5077;SDS011;2557;51.390;7.494;2022-08-21T03:14:18;15.23;;;9.17;;
5077;SDS011;2557;51.390;7.494;2022-08-21T03:16:44;10.93;;;8.77;;
5077;SDS011;2557;51.390;7.494;2022-08-21T03:19:10;15.37;;;8.50;;
5077;SDS011;2557;51.390;7.494;2022-08-21T03:21:37;17.13;;;10.27;;
5077;SDS011;2557;51.390;7.494;2022-08-21T03:24:03;12.60;;;9.30;;
5077;SDS011;2557;51.390;7.494;2022-08-21T03:26:29;9.90;;;8.90;;
5077;SDS011;2557;51.390;7.494;2022-08-21T03:28:55;12.07;;;8.83;;
5077;SDS011;2557;51.390;7.494;2022-08-21T03:31:22;11.90;;;9.00;;
5077;SDS011;2557;51.390;7.494;2022-08-21T03:33:48;15.20;;;8.73;;
5077;SDS011;2557;51.390;7.494;2022-08-21T03:36:15;9.77;;;8.77;;
5077;SDS011;2557;51.390;7.494;2022-08-21T03:38:41;9.77;;;8.87;;
5077;SDS011;2557;51.390;7.494;2022-08-21T03:41:07;18.23;;;8.23;;
5077;SDS011;2557;51.390;7.494;2022-08-21T03:43:34;10.73;;;7.10;;
5077;SDS011;2557;51.390;7.494;2022-08-21T03:46:01;13.03;;;7.60;;
5077;SDS011;2557;51.390;7.494;2022-08-21T03:48:28;12.23;;;7.23;;
5077;SDS011;2557;51.390;7.494;2022-08-21T03:50:54;13.57;;;8.17;;
5077;SDS011;2557;51.390;7.494;2022-08-21T03:53:21;10.10;;;8.07;;
5077;SDS011;2557;51.390;7.494;2022-08-21T03:55:48;12.53;;;8.00;;
5077;SDS011;2557;51.390;7.494;2022-08-21T03:58:15;12.23;;;9.43;;
5077;SDS011;2557;51.390;7.494;2022-08-21T04:00:41;9.40;;;7.73;;
5077;SDS011;2557;51.390;7.494;2022-08-21T04:03:07;11.53;;;8.33;;
5077;SDS011;2557;51.390;7.494;2022-08-21T04:05:33;10.97;;;7.73;;
5077;SDS011;2557;51.390;7.494;2022-08-21T04:08:01;13.50;;;8.10;;
5077;SDS011;2557;51.390;7.494;2022-08-21T04:10:28;11.73;;;8.70;;
5077;SDS011;2557;51.390;7.494;2022-08-21T04:12:55;10.57;;;8.30;;
5077;SDS011;2557;51.390;7.494;2022-08-21T04:15:21;11.67;;;8.40;;
5077;SDS011;2557;51.390;7.494;2022-08-21T04:17:47;9.80;;;8.80;;
5077;SDS011;2557;51.390;7.494;2022-08-21T04:20:14;14.27;;;9.07;;
5077;SDS011;2557;51.390;7.494;2022-08-21T04:22:40;14.17;;;8.40;;
5077;SDS011;2557;51.390;7.494;2022-08-21T04:25:06;9.93;;;9.00;;
5077;SDS011;2557;51.390;7.494;2022-08-21T04:27:33;13.27;;;8.70;;
5077;SDS011;2557;51.390;7.494;2022-08-21T04:29:59;14.87;;;8.00;;
5077;SDS011;2557;51.390;7.494;2022-08-21T04:32:25;16.13;;;9.40;;
5077;SDS011;2557;51.390;7.494;2022-08-21T04:34:59;10.20;;;7.70;;
5077;SDS011;2557;51.390;7.494;2022-08-21T04:37:26;8.30;;;7.50;;
5077;SDS011;2557;51.390;7.494;2022-08-21T04:39:53;9.37;;;7.13;;
5077;SDS011;2557;51.390;7.494;2022-08-21T04:42:21;9.37;;;8.37;;
5077;SDS011;2557;51.390;7.494;2022-08-21T04:44:47;8.40;;;7.60;;
5077;SDS011;2557;51.390;7.494;2022-08-21T04:47:13;14.10;;;9.53;;
5077;SDS011;2557;51.390;7.494;2022-08-21T04:49:40;11.70;;;9.07;;
5077;SDS011;2557;51.390;7.494;2022-08-21T04:52:06;12.43;;;9.23;;
5077;SDS011;2557;51.390;7.494;2022-08-21T04:54:32;9.70;;;8.70;;
5077;SDS011;2557;51.390;7.494;2022-08-21T04:57:00;9.40;;;8.40;;
5077;SDS011;2557;51.390;7.494;2022-08-21T04:59:31;10.77;;;9.10;;
5077;SDS011;2557;51.390;7.494;2022-08-21T05:01:59;17.53;;;9.27;;
5077;SDS011;2557;51.390;7.494;2022-08-21T05:04:26;13.10;;;9.00;;
5077;SDS011;2557;51.390;7.494;2022-08-21T05:06:54;10.53;;;9.30;;
5077;SDS011;2557;51.390;7.494;2022-08-21T05:09:23;17.50;;;8.43;;
5077;SDS011;2557;51.390;7.494;2022-08-21T05:11:49;10.80;;;8.00;;
5077;SDS011;2557;51.390;7.494;2022-08-21T05:14:16;15.20;;;8.80;;
5077;SDS011;2557;51.390;7.494;2022-08-21T05:16:42;12.20;;;8.73;;
5077;SDS011;2557;51.390;7.494;2022-08-21T05:19:09;12.07;;;8.70;;
5077;SDS011;2557;51.390;7.494;2022-08-21T05:21:35;10.27;;;8.50;;
5077;SDS011;2557;51.390;7.494;2022-08-21T05:24:02;15.10;;;9.70;;
5077;SDS011;2557;51.390;7.494;2022-08-21T05:26:28;10.97;;;9.20;;
5077;SDS011;2557;51.390;7.494;2022-08-21T05:28:54;11.20;;;8.37;;
5077;SDS011;2557;51.390;7.494;2022-08-21T05:31:20;10.50;;;7.67;;
5077;SDS011;2557;51.390;7.494;2022-08-21T05:33:47;8.37;;;7.47;;
5077;SDS011;2557;51.390;7.494;2022-08-21T05:36:13;10.30;;;8.43;;
5077;SDS011;2557;51.390;7.494;2022-08-21T05:38:39;9.57;;;8.40;;
5077;SDS011;2557;51.390;7.494;2022-08-21T05:41:05;9.70;;;7.93;;
5077;SDS011;2557;51.390;7.494;2022-08-21T05:43:32;10.47;;;8.53;;
5077;SDS011;2557;51.390;7.494;2022-08-21T05:46:01;10.33;;;8.97;;
5077;SDS011;2557;51.390;7.494;2022-08-21T05:48:27;12.33;;;9.00;;
5077;SDS011;2557;51.390;7.494;2022-08-21T05:50:53;13.10;;;8.33;;
5077;SDS011;2557;51.390;7.494;2022-08-21T05:53:19;11.43;;;9.07;;
5077;SDS011;2557;51.390;7.494;2022-08-21T05:55:46;8.50;;;7.70;;
5077;SDS011;2557;51.390;7.494;2022-08-21T05:58:13;11.87;;;9.07;;
5077;SDS011;2557;51.390;7.494;2022-08-21T06:00:39;9.33;;;7.87;;
5077;SDS011;2557;51.390;7.494;2022-08-21T06:03:10;10.37;;;8.70;;
5077;SDS011;2557;51.390;7.494;2022-08-21T06:05:36;13.37;;;8.93;;
5077;SDS011;2557;51.390;7.494;2022-08-21T06:08:02;10.90;;;8.97;;
5077;SDS011;2557;51.390;7.494;2022-08-21T06:10:28;12.70;;;9.30;;
5077;SDS011;2557;51.390;7.494;2022-08-21T06:12:54;12.80;;;8.67;;
5077;SDS011;2557;51.390;7.494;2022-08-21T06:15:20;10.30;;;7.73;;
5077;SDS011;2557;51.390;7.494;2022-08-21T06:17:46;9.60;;;7.10;;
5077;SDS011;2557;51.390;7.494;2022-08-21T06:20:12;12.80;;;8.80;;
5077;SDS011;2557;51.390;7.494;2022-08-21T06:22:38;14.87;;;8.10;;
5077;SDS011;2557;51.390;7.494;2022-08-21T06:25:04;11.80;;;7.83;;
5077;SDS011;2557;51.390;7.494;2022-08-21T06:27:31;8.70;;;7.60;;
5077;SDS011;2557;51.390;7.494;2022-08-21T06:29:57;13.13;;;8.70;;
5077;SDS011;2557;51.390;7.494;2022-08-21T06:32:23;13.40;;;8.10;;
5077;SDS011;2557;51.390;7.494;2022-08-21T06:34:49;8.20;;;7.40;;
5077;SDS011;2557;51.390;7.494;2022-08-21T06:37:16;9.13;;;7.57;;
5077;SDS011;2557;51.390;7.494;2022-08-21T06:39:42;9.70;;;7.73;;
5077;SDS011;2557;51.390;7.494;2022-08-21T06:42:12;12.10;;;7.23;;
5077;SDS011;2557;51.390;7.494;2022-08-21T06:44:39;16.27;;;8.60;;
5077;SDS011;2557;51.390;7.494;2022-08-21T06:47:05;7.80;;;6.60;;
5077;SDS011;2557;51.390;7.494;2022-08-21T06:49:31;9.40;;;7.50;;
5077;SDS011;2557;51.390;7.494;2022-08-21T06:51:57;10.53;;;7.80;;
5077;SDS011;2557;51.390;7.494;2022-08-21T06:54:23;9.10;;;7.60;;
5077;SDS011;2557;51.390;7.494;2022-08-21T06:56:49;10.30;;;7.40;;
5077;SDS011;2557;51.390;7.494;2022-08-21T06:59:15;8.70;;;7.00;;
5077;SDS011;2557;51.390;7.494;2022-08-21T07:01:41;7.57;;;6.87;;
5077;SDS011;2557;51.390;7.494;2022-08-21T07:04:07;10.67;;;7.03;;
5077;SDS011;2557;51.390;7.494;2022-08-21T07:06:33;8.43;;;7.30;;
5077;SDS011;2557;51.390;7.494;2022-08-21T07:08:59;7.97;;;6.93;;
5077;SDS011;2557;51.390;7.494;2022-08-21T07:11:26;9.00;;;7.60;;
5077;SDS011;2557;51.390;7.494;2022-08-21T07:13:52;8.70;;;6.90;;
5077;SDS011;2557;51.390;7.494;2022-08-21T07:16:19;13.13;;;6.63;;
5077;SDS011;2557;51.390;7.494;2022-08-21T07:18:46;7.80;;;6.00;;
5077;SDS011;2557;51.390;7.494;2022-08-21T07:21:12;7.30;;;6.47;;
5077;SDS011;2557;51.390;7.494;2022-08-21T07:23:40;9.80;;;6.23;;
5077;SDS011;2557;51.390;7.494;2022-08-21T07:26:07;9.00;;;6.77;;
5077;SDS011;2557;51.390;7.494;2022-08-21T07:28:33;8.97;;;5.83;;
5077;SDS011;2557;51.390;7.494;2022-08-21T07:31:00;12.73;;;6.60;;
5077;SDS011;2557;51.390;7.494;2022-08-21T07:33:28;9.63;;;7.50;;
5077;SDS011;2557;51.390;7.494;2022-08-21T07:35:54;15.00;;;7.07;;
5077;SDS011;2557;51.390;7.494;2022-08-21T07:38:20;8.00;;;6.67;;
5077;SDS011;2557;51.390;7.494;2022-08-21T07:40:47;10.03;;;6.93;;
5077;SDS011;2557;51.390;7.494;2022-08-21T07:43:14;9.00;;;6.83;;
5077;SDS011;2557;51.390;7.494;2022-08-21T07:45:43;9.83;;;8.37;;
5077;SDS011;2557;51.390;7.494;2022-08-21T07:48:09;7.90;;;5.90;;
5077;SDS011;2557;51.390;7.494;2022-08-21T07:50:35;13.17;;;6.03;;
5077;SDS011;2557;51.390;7.494;2022-08-21T07:53:01;16.97;;;8.00;;
5077;SDS011;2557;51.390;7.494;2022-08-21T07:55:27;12.90;;;9.40;;
5077;SDS011;2557;51.390;7.494;2022-08-21T07:57:53;12.73;;;7.60;;
5077;SDS011;2557;51.390;7.494;2022-08-21T08:00:21;12.77;;;8.50;;
5077;SDS011;2557;51.390;7.494;2022-08-21T08:02:48;12.77;;;8.40;;
5077;SDS011;2557;51.390;7.494;2022-08-21T08:05:15;11.20;;;8.27;;
5077;SDS011;2557;51.390;7.494;2022-08-21T08:07:43;13.47;;;9.43;;
5077;SDS011;2557;51.390;7.494;2022-08-21T08:10:09;14.43;;;8.10;;
5077;SDS011;2557;51.390;7.494;2022-08-21T08:12:36;13.53;;;7.33;;
5077;SDS011;2557;51.390;7.494;2022-08-21T08:15:03;12.30;;;7.67;;
5077;SDS011;2557;51.390;7.494;2022-08-21T08:17:29;22.90;;;7.97;;
5077;SDS011;2557;51.390;7.494;2022-08-21T08:19:57;9.70;;;6.93;;
5077;SDS011;2557;51.390;7.494;2022-08-21T08:22:23;10.27;;;7.10;;
5077;SDS011;2557;51.390;7.494;2022-08-21T08:24:50;14.30;;;7.97;;
5077;SDS011;2557;51.390;7.494;2022-08-21T08:27:16;9.90;;;6.90;;
5077;SDS011;2557;51.390;7.494;2022-08-21T08:29:43;9.50;;;7.13;;
5077;SDS011;2557;51.390;7.494;2022-08-21T08:32:09;9.43;;;7.37;;
5077;SDS011;2557;51.390;7.494;2022-08-21T08:34:36;12.33;;;7.50;;
5077;SDS011;2557;51.390;7.494;2022-08-21T08:37:02;21.50;;;7.63;;
5077;SDS011;2557;51.390;7.494;2022-08-21T08:39:28;10.70;;;7.40;;
5077;SDS011;2557;51.390;7.494;2022-08-21T08:41:56;11.20;;;7.57;;
5077;SDS011;2557;51.390;7.494;2022-08-21T08:44:24;10.10;;;6.67;;
5077;SDS011;2557;51.390;7.494;2022-08-21T08:46:50;11.37;;;7.40;;
5077;SDS011;2557;51.390;7.494;2022-08-21T08:49:21;8.07;;;6.70;;
5077;SDS011;2557;51.390;7.494;2022-08-21T08:51:53;8.70;;;5.27;;
5077;SDS011;2557;51.390;7.494;2022-08-21T08:54:28;13.13;;;7.60;;
5077;SDS011;2557;51.390;7.494;2022-08-21T08:56:57;13.73;;;7.20;;
5077;SDS011;2557;51.390;7.494;2022-08-21T08:59:26;11.43;;;6.63;;
5077;SDS011;2557;51.390;7.494;2022-08-21T09:01:52;8.20;;;5.20;;
5077;SDS011;2557;51.390;7.494;2022-08-21T09:04:21;13.43;;;5.50;;
5077;SDS011;2557;51.390;7.494;2022-08-21T09:12:04;11.40;;;4.87;;
5077;SDS011;2557;51.390;7.494;2022-08-21T09:19:42;9.10;;;3.90;;
5077;SDS011;2557;51.390;7.494;2022-08-21T09:22:17;7.77;;;3.90;;
5077;SDS011;2557;51.390;7.494;2022-08-21T09:27:14;4.43;;;3.00;;
5077;SDS011;2557;51.390;7.494;2022-08-21T09:29:42;4.23;;;3.00;;
5077;SDS011;2557;51.390;7.494;2022-08-21T09:32:15;5.80;;;3.27;;
5077;SDS011;2557;51.390;7.494;2022-08-21T09:34:42;10.27;;;3.53;;
5077;SDS011;2557;51.390;7.494;2022-08-21T09:37:15;4.43;;;3.13;;
5077;SDS011;2557;51.390;7.494;2022-08-21T09:39:42;9.70;;;3.63;;
5077;SDS011;2557;51.390;7.494;2022-08-21T09:42:09;8.70;;;4.67;;
5077;SDS011;2557;51.390;7.494;2022-08-21T09:44:39;6.60;;;3.60;;
5077;SDS011;2557;51.390;7.494;2022-08-21T09:47:09;8.07;;;3.33;;
5077;SDS011;2557;51.390;7.494;2022-08-21T09:49:38;5.87;;;3.07;;
5077;SDS011;2557;51.390;7.494;2022-08-21T09:52:10;4.40;;;2.53;;
5077;SDS011;2557;51.390;7.494;2022-08-21T09:54:39;10.40;;;4.00;;
5077;SDS011;2557;51.390;7.494;2022-08-21T09:59:53;7.33;;;3.17;;
5077;SDS011;2557;51.390;7.494;2022-08-21T10:02:22;7.07;;;3.30;;
5077;SDS011;2557;51.390;7.494;2022-08-21T10:04:49;6.93;;;3.83;;
5077;SDS011;2557;51.390;7.494;2022-08-21T10:07:19;8.20;;;3.63;;
5077;SDS011;2557;51.390;7.494;2022-08-21T10:09:45;4.67;;;2.63;;
5077;SDS011;2557;51.390;7.494;2022-08-21T10:12:14;6.03;;;3.03;;
5077;SDS011;2557;51.390;7.494;2022-08-21T10:14:49;10.83;;;3.37;;
5077;SDS011;2557;51.390;7.494;2022-08-21T10:17:33;10.33;;;2.97;;
5077;SDS011;2557;51.390;7.494;2022-08-21T10:22:44;4.93;;;2.57;;
5077;SDS011;2557;51.390;7.494;2022-08-21T10:25:23;6.73;;;3.23;;
5077;SDS011;2557;51.390;7.494;2022-08-21T10:27:58;10.23;;;2.73;;
5077;SDS011;2557;51.390;7.494;2022-08-21T10:35:37;4.50;;;2.50;;
5077;SDS011;2557;51.390;7.494;2022-08-21T10:38:33;6.50;;;3.07;;
5077;SDS011;2557;51.390;7.494;2022-08-21T10:40:56;6.33;;;2.80;;
5077;SDS011;2557;51.390;7.494;2022-08-21T10:46:15;5.33;;;3.30;;
5077;SDS011;2557;51.390;7.494;2022-08-21T10:48:47;5.57;;;2.40;;
5077;SDS011;2557;51.390;7.494;2022-08-21T10:51:15;6.77;;;2.83;;
5077;SDS011;2557;51.390;7.494;2022-08-21T10:56:23;5.30;;;2.33;;
5077;SDS011;2557;51.390;7.494;2022-08-21T10:59:12;4.00;;;2.27;;
5077;SDS011;2557;51.390;7.494;2022-08-21T11:04:09;5.75;;;2.33;;
5077;SDS011;2557;51.390;7.494;2022-08-21T11:06:36;5.05;;;2.55;;
5077;SDS011;2557;51.390;7.494;2022-08-21T11:09:11;3.85;;;2.58;;
5077;SDS011;2557;51.390;7.494;2022-08-21T11:11:39;3.28;;;1.60;;
5077;SDS011;2557;51.390;7.494;2022-08-21T11:14:13;4.13;;;2.40;;
5077;SDS011;2557;51.390;7.494;2022-08-21T11:16:48;2.90;;;2.20;;
5077;SDS011;2557;51.390;7.494;2022-08-21T11:19:17;5.72;;;2.30;;
5077;SDS011;2557;51.390;7.494;2022-08-21T11:21:53;4.90;;;2.67;;
5077;SDS011;2557;51.390;7.494;2022-08-21T11:24:29;5.00;;;2.80;;
5077;SDS011;2557;51.390;7.494;2022-08-21T11:29:41;6.60;;;2.47;;
5077;SDS011;2557;51.390;7.494;2022-08-21T11:35:00;3.60;;;1.70;;
5077;SDS011;2557;51.390;7.494;2022-08-21T11:40:14;6.88;;;2.17;;
5077;SDS011;2557;51.390;7.494;2022-08-21T11:42:53;3.87;;;2.13;;
5077;SDS011;2557;51.390;7.494;2022-08-21T11:45:23;3.08;;;2.28;;
5077;SDS011;2557;51.390;7.494;2022-08-21T11:50:35;4.10;;;2.20;;
5077;SDS011;2557;51.390;7.494;2022-08-21T11:53:15;6.53;;;1.87;;
5077;SDS011;2557;51.390;7.494;2022-08-21T11:58:22;7.30;;;2.03;;
5077;SDS011;2557;51.390;7.494;2022-08-21T12:00:52;3.07;;;1.67;;
5077;SDS011;2557;51.390;7.494;2022-08-21T12:03:41;3.03;;;1.70;;
5077;SDS011;2557;51.390;7.494;2022-08-21T12:06:07;2.80;;;2.00;;
5077;SDS011;2557;51.390;7.494;2022-08-21T12:08:34;5.63;;;2.00;;
5077;SDS011;2557;51.390;7.494;2022-08-21T12:11:03;3.13;;;2.07;;
5077;SDS011;2557;51.390;7.494;2022-08-21T12:13:31;3.00;;;1.90;;
5077;SDS011;2557;51.390;7.494;2022-08-21T12:18:33;3.20;;;1.70;;
5077;SDS011;2557;51.390;7.494;2022-08-21T12:21:17;5.23;;;1.70;;
5077;SDS011;2557;51.390;7.494;2022-08-21T12:23:48;3.80;;;2.00;;
5077;SDS011;2557;51.390;7.494;2022-08-21T12:26:25;2.97;;;1.90;;
5077;SDS011;2557;51.390;7.494;2022-08-21T12:29:02;3.40;;;1.63;;
5077;SDS011;2557;51.390;7.494;2022-08-21T12:31:28;2.40;;;1.40;;
5077;SDS011;2557;51.390;7.494;2022-08-21T12:33:58;3.77;;;1.93;;
5077;SDS011;2557;51.390;7.494;2022-08-21T12:36:48;3.77;;;1.60;;
5077;SDS011;2557;51.390;7.494;2022-08-21T12:39:13;3.60;;;1.67;;
5077;SDS011;2557;51.390;7.494;2022-08-21T12:44:28;5.90;;;1.90;;
5077;SDS011;2557;51.390;7.494;2022-08-21T12:47:31;1.90;;;1.43;;
5077;SDS011;2557;51.390;7.494;2022-08-21T12:50:01;2.63;;;1.23;;
5077;SDS011;2557;51.390;7.494;2022-08-21T12:52:30;2.13;;;1.63;;
5077;SDS011;2557;51.390;7.494;2022-08-21T12:54:58;2.43;;;1.20;;
5077;SDS011;2557;51.390;7.494;2022-08-21T12:57:25;4.03;;;1.93;;
5077;SDS011;2557;51.390;7.494;2022-08-21T12:59:56;1.60;;;1.43;;
5077;SDS011;2557;51.390;7.494;2022-08-21T13:03:04;3.07;;;1.40;;
5077;SDS011;2557;51.390;7.494;2022-08-21T13:05:12;2.50;;;1.57;;
5077;SDS011;2557;51.390;7.494;2022-08-21T13:07:42;3.00;;;1.43;;
5077;SDS011;2557;51.390;7.494;2022-08-21T13:10:22;1.80;;;1.40;;
5077;SDS011;2557;51.390;7.494;2022-08-21T13:12:49;2.33;;;1.70;;
5077;SDS011;2557;51.390;7.494;2022-08-21T13:15:21;6.90;;;2.03;;
5077;SDS011;2557;51.390;7.494;2022-08-21T13:17:48;2.53;;;1.70;;
5077;SDS011;2557;51.390;7.494;2022-08-21T13:20:23;3.70;;;1.70;;
5077;SDS011;2557;51.390;7.494;2022-08-21T13:22:50;2.43;;;1.67;;
5077;SDS011;2557;51.390;7.494;2022-08-21T13:25:17;2.00;;;1.70;;
5077;SDS011;2557;51.390;7.494;2022-08-21T13:27:44;2.50;;;1.60;;
5077;SDS011;2557;51.390;7.494;2022-08-21T13:30:19;3.63;;;1.73;;
5077;SDS011;2557;51.390;7.494;2022-08-21T13:32:51;1.73;;;1.50;;
5077;SDS011;2557;51.390;7.494;2022-08-21T13:37:44;4.70;;;2.00;;
5077;SDS011;2557;51.390;7.494;2022-08-21T13:40:31;2.80;;;1.80;;
5077;SDS011;2557;51.390;7.494;2022-08-21T13:42:57;3.87;;;1.93;;
5077;SDS011;2557;51.390;7.494;2022-08-21T13:45:26;2.30;;;1.77;;
5077;SDS011;2557;51.390;7.494;2022-08-21T13:47:52;3.00;;;1.90;;
5077;SDS011;2557;51.390;7.494;2022-08-21T13:50:21;2.13;;;1.40;;
5077;SDS011;2557;51.390;7.494;2022-08-21T13:52:53;3.63;;;1.90;;
5077;SDS011;2557;51.390;7.494;2022-08-21T13:55:19;2.23;;;1.50;;
5077;SDS011;2557;51.390;7.494;2022-08-21T13:57:45;6.10;;;1.80;;
5077;SDS011;2557;51.390;7.494;2022-08-21T14:02:41;3.70;;;1.77;;
5077;SDS011;2557;51.390;7.494;2022-08-21T14:05:08;1.63;;;1.53;;
5077;SDS011;2557;51.390;7.494;2022-08-21T14:07:40;5.40;;;1.57;;
5077;SDS011;2557;51.390;7.494;2022-08-21T14:10:13;2.13;;;1.93;;
5077;SDS011;2557;51.390;7.494;2022-08-21T14:12:42;2.20;;;1.70;;
5077;SDS011;2557;51.390;7.494;2022-08-21T14:15:09;1.60;;;1.40;;
5077;SDS011;2557;51.390;7.494;2022-08-21T14:17:36;3.30;;;2.00;;
5077;SDS011;2557;51.390;7.494;2022-08-21T14:20:04;9.03;;;2.40;;
5077;SDS011;2557;51.390;7.494;2022-08-21T14:27:29;2.73;;;1.87;;
5077;SDS011;2557;51.390;7.494;2022-08-21T14:30:10;3.00;;;1.60;;
5077;SDS011;2557;51.390;7.494;2022-08-21T14:32:37;2.80;;;1.53;;
5077;SDS011;2557;51.390;7.494;2022-08-21T14:35:04;2.00;;;1.90;;
5077;SDS011;2557;51.390;7.494;2022-08-21T14:37:30;2.20;;;2.00;;
5077;SDS011;2557;51.390;7.494;2022-08-21T14:39:56;2.97;;;1.80;;
5077;SDS011;2557;51.390;7.494;2022-08-21T14:42:23;4.77;;;2.23;;
5077;SDS011;2557;51.390;7.494;2022-08-21T14:44:49;3.20;;;1.80;;
5077;SDS011;2557;51.390;7.494;2022-08-21T14:47:15;6.40;;;2.63;;
5077;SDS011;2557;51.390;7.494;2022-08-21T14:49:41;4.27;;;1.67;;
5077;SDS011;2557;51.390;7.494;2022-08-21T14:52:07;5.07;;;1.90;;
5077;SDS011;2557;51.390;7.494;2022-08-21T14:54:34;2.00;;;1.90;;
5077;SDS011;2557;51.390;7.494;2022-08-21T14:57:06;2.20;;;1.57;;
5077;SDS011;2557;51.390;7.494;2022-08-21T14:59:33;2.63;;;1.50;;
5077;SDS011;2557;51.390;7.494;2022-08-21T15:02:00;6.67;;;1.90;;
5077;SDS011;2557;51.390;7.494;2022-08-21T15:04:29;2.77;;;1.90;;
5077;SDS011;2557;51.390;7.494;2022-08-21T15:06:55;2.30;;;2.10;;
5077;SDS011;2557;51.390;7.494;2022-08-21T15:09:21;2.50;;;2.30;;
5077;SDS011;2557;51.390;7.494;2022-08-21T15:11:48;2.90;;;1.83;;
5077;SDS011;2557;51.390;7.494;2022-08-21T15:14:19;2.53;;;1.77;;
5077;SDS011;2557;51.390;7.494;2022-08-21T15:16:46;3.67;;;2.03;;
5077;SDS011;2557;51.390;7.494;2022-08-21T15:19:12;5.27;;;1.90;;
5077;SDS011;2557;51.390;7.494;2022-08-21T15:21:38;2.70;;;1.83;;
5077;SDS011;2557;51.390;7.494;2022-08-21T15:24:04;2.77;;;1.63;;
5077;SDS011;2557;51.390;7.494;2022-08-21T15:26:30;3.93;;;1.80;;
5077;SDS011;2557;51.390;7.494;2022-08-21T15:28:56;3.10;;;1.73;;
5077;SDS011;2557;51.390;7.494;2022-08-21T15:31:24;3.30;;;1.90;;
5077;SDS011;2557;51.390;7.494;2022-08-21T15:33:50;2.17;;;1.57;;
5077;SDS011;2557;51.390;7.494;2022-08-21T15:36:17;1.97;;;1.67;;
5077;SDS011;2557;51.390;7.494;2022-08-21T15:38:43;1.70;;;1.60;;
5077;SDS011;2557;51.390;7.494;2022-08-21T15:41:09;4.70;;;1.83;;
5077;SDS011;2557;51.390;7.494;2022-08-21T15:43:41;2.80;;;1.70;;
5077;SDS011;2557;51.390;7.494;2022-08-21T15:46:08;2.20;;;1.57;;
5077;SDS011;2557;51.390;7.494;2022-08-21T15:48:36;1.70;;;1.57;;
5077;SDS011;2557;51.390;7.494;2022-08-21T15:51:02;3.97;;;1.50;;
5077;SDS011;2557;51.390;7.494;2022-08-21T15:53:28;1.83;;;1.73;;
5077;SDS011;2557;51.390;7.494;2022-08-21T15:55:56;6.40;;;1.67;;
5077;SDS011;2557;51.390;7.494;2022-08-21T15:58:22;1.50;;;1.40;;
5077;SDS011;2557;51.390;7.494;2022-08-21T16:00:48;2.00;;;1.50;;
5077;SDS011;2557;51.390;7.494;2022-08-21T16:03:15;2.70;;;1.67;;
5077;SDS011;2557;51.390;7.494;2022-08-21T16:05:43;1.60;;;1.50;;
5077;SDS011;2557;51.390;7.494;2022-08-21T16:08:09;2.93;;;1.63;;
5077;SDS011;2557;51.390;7.494;2022-08-21T16:10:36;2.53;;;1.70;;
5077;SDS011;2557;51.390;7.494;2022-08-21T16:13:03;2.80;;;1.60;;
5077;SDS011;2557;51.390;7.494;2022-08-21T16:15:29;3.03;;;1.90;;